Dades meteomassalio
Diari Summary for Febrer 7, 2018 Units:  Both    English   Metric
« Previous Day
Next Day »
Diari Semanal Mensual Anual Personalitzat
  Maxima: Minima: Mijana:
Temperatura: TemperatureC °F /  -17.8 °C 0.6 °F /  -17.4 °C 3.2 °F /  -16 °C
Rosada: DewpointC °F /  -17.8 °C -3.4 °F /  -19.7 °C -1.6 °F /  -18.7 °C
Humitat: Humidity % 58 % 71 %
Velocitat del vent: WindSpeedKMH mph /  0 km/h - 26.4 mph /  42.5 km/h
Racha vent: WindSpeedGustKMH mph /  0 km/h - -
Vent:- - NW
Pressio: PressurehPa in /  0 hPa 1014.1 in /  34337.4 hPa -
Pluja: 0.0 in /  0 mm    
Historical Graphs
 
 
Tabular Data for Febrer 7, 2018
Time Temperature Dew Point Pressure Wind Wind Speed Wind Gust Humidity Rainfall Rate (Hourly) solar Conditions
TemperatureC °F /  -17.8 °C DewpointC °F /  -17.8 °C PressurehPa in /  0 hPa Calm     Humidity % HourlyPrecipMM in /  0 mm SolarRadiationWatts/m^2 W/m2 Conditions
00:00 1.7 °F /  -16.8 °C -1.9 °F /  -18.8 °C 1014.4 in /  34347.6 hPa WNW 17.7 mph /  28.5 km/h 17.7 mph /  28.5 km/h 77 % 0.0 in /  0 mm 0.0 W/m2 RA
00:05 1.7 °F /  -16.8 °C -2.1 °F /  -18.9 °C 1014.4 in /  34347.6 hPa WNW 18.5 mph /  29.8 km/h 18.5 mph /  29.8 km/h 76 % 0.0 in /  0 mm 0.0 W/m2 CLR
00:10 1.7 °F /  -16.8 °C -2.1 °F /  -18.9 °C 1014.4 in /  34347.6 hPa NW 22.2 mph /  35.7 km/h 22.2 mph /  35.7 km/h 76 % 0.0 in /  0 mm 0.0 W/m2 CLR
00:15 1.7 °F /  -16.8 °C -2.1 °F /  -18.9 °C 1014.4 in /  34347.6 hPa WNW 16.7 mph /  26.9 km/h 16.7 mph /  26.9 km/h 76 % 0.0 in /  0 mm 0.0 W/m2 CLR
00:20 1.7 °F /  -16.8 °C -1.9 °F /  -18.8 °C 1014.4 in /  34347.6 hPa WNW 24.1 mph /  38.8 km/h 24.1 mph /  38.8 km/h 77 % 0.0 in /  0 mm 0.0 W/m2 CLR
00:25 1.7 °F /  -16.8 °C -1.9 °F /  -18.8 °C 1014.4 in /  34347.6 hPa West 29.6 mph /  47.6 km/h 29.6 mph /  47.6 km/h 77 % 0.0 in /  0 mm 0.0 W/m2 CLR
00:30 1.7 °F /  -16.8 °C -1.9 °F /  -18.8 °C 1014.4 in /  34347.6 hPa West 22.5 mph /  36.2 km/h 22.5 mph /  36.2 km/h 77 % 0.0 in /  0 mm 0.0 W/m2 CLR
00:35 1.7 °F /  -16.8 °C -1.8 °F /  -18.8 °C 1014.4 in /  34347.6 hPa West 18.5 mph /  29.8 km/h 18.5 mph /  29.8 km/h 78 % 0.0 in /  0 mm 0.0 W/m2 CLR
00:40 1.7 °F /  -16.8 °C -1.8 °F /  -18.8 °C 1014.4 in /  34347.6 hPa WNW 25.9 mph /  41.7 km/h 25.9 mph /  41.7 km/h 78 % 0.0 in /  0 mm 0.0 W/m2 CLR
00:45 1.7 °F /  -16.8 °C -1.9 °F /  -18.8 °C 1014.4 in /  34347.6 hPa WNW 22.2 mph /  35.7 km/h 22.2 mph /  35.7 km/h 77 % 0.0 in /  0 mm 0.0 W/m2 CLR
00:50 1.7 °F /  -16.8 °C -1.8 °F /  -18.8 °C 1014.4 in /  34347.6 hPa WNW 24.1 mph /  38.8 km/h 24.1 mph /  38.8 km/h 78 % 0.0 in /  0 mm 0.0 W/m2 CLR
00:55 1.7 °F /  -16.8 °C -1.8 °F /  -18.8 °C 1014.4 in /  34347.6 hPa WNW 20.9 mph /  33.6 km/h 20.9 mph /  33.6 km/h 78 % 0.0 in /  0 mm 0.0 W/m2 CLR
01:00 1.7 °F /  -16.8 °C -1.8 °F /  -18.8 °C 1014.4 in /  34347.6 hPa West 27.8 mph /  44.7 km/h 27.8 mph /  44.7 km/h 78 % 0.0 in /  0 mm 0.0 W/m2 CLR
01:05 1.7 °F /  -16.8 °C -1.8 °F /  -18.8 °C 1014.4 in /  34347.6 hPa WNW 25.9 mph /  41.7 km/h 25.9 mph /  41.7 km/h 78 % 0.0 in /  0 mm 0.0 W/m2 CLR
01:10 1.7 °F /  -16.8 °C -1.8 °F /  -18.8 °C 1014.4 in /  34347.6 hPa WNW 20.4 mph /  32.8 km/h 20.4 mph /  32.8 km/h 78 % 0.0 in /  0 mm 0.0 W/m2 CLR
01:15 1.7 °F /  -16.8 °C -1.6 °F /  -18.7 °C 1014.4 in /  34347.6 hPa WNW 25.9 mph /  41.7 km/h 25.9 mph /  41.7 km/h 79 % 0.0 in /  0 mm 0.0 W/m2 CLR
01:20 1.7 °F /  -16.8 °C -1.6 °F /  -18.7 °C 1014.4 in /  34347.6 hPa NW 22.5 mph /  36.2 km/h 22.5 mph /  36.2 km/h 79 % 0.0 in /  0 mm 0.0 W/m2 CLR
01:25 1.7 °F /  -16.8 °C -1.6 °F /  -18.7 °C 1014.4 in /  34347.6 hPa NW 25.9 mph /  41.7 km/h 25.9 mph /  41.7 km/h 79 % 0.0 in /  0 mm 0.0 W/m2 CLR
01:30 1.7 °F /  -16.8 °C -1.8 °F /  -18.8 °C 1014.4 in /  34347.6 hPa NW 25.9 mph /  41.7 km/h 25.9 mph /  41.7 km/h 78 % 0.0 in /  0 mm 0.0 W/m2 CLR
01:35 1.7 °F /  -16.8 °C -1.8 °F /  -18.8 °C 1014.4 in /  34347.6 hPa WNW 25.7 mph /  41.4 km/h 25.7 mph /  41.4 km/h 78 % 0.0 in /  0 mm 0.0 W/m2 CLR
01:40 1.7 °F /  -16.8 °C -1.6 °F /  -18.7 °C 1014.4 in /  34347.6 hPa WNW 25.7 mph /  41.4 km/h 25.7 mph /  41.4 km/h 79 % 0.0 in /  0 mm 0.0 W/m2 CLR
01:45 1.7 °F /  -16.8 °C -1.8 °F /  -18.8 °C 1014.1 in /  34337.4 hPa NW 31.5 mph /  50.7 km/h 31.5 mph /  50.7 km/h 78 % 0.0 in /  0 mm 0.0 W/m2 CLR
01:50 1.7 °F /  -16.8 °C -1.8 °F /  -18.8 °C 1014.4 in /  34347.6 hPa NW 29.6 mph /  47.6 km/h 29.6 mph /  47.6 km/h 78 % 0.0 in /  0 mm 0.0 W/m2 CLR
01:55 1.7 °F /  -16.8 °C -1.8 °F /  -18.8 °C 1014.4 in /  34347.6 hPa NW 29.6 mph /  47.6 km/h 29.6 mph /  47.6 km/h 78 % 0.0 in /  0 mm 0.0 W/m2 CLR
02:00 1.7 °F /  -16.8 °C -1.8 °F /  -18.8 °C 1014.4 in /  34347.6 hPa WNW 24.1 mph /  38.8 km/h 24.1 mph /  38.8 km/h 78 % 0.0 in /  0 mm 0.0 W/m2 CLR
02:05 1.7 °F /  -16.8 °C -1.8 °F /  -18.8 °C 1014.4 in /  34347.6 hPa NW 22.2 mph /  35.7 km/h 22.2 mph /  35.7 km/h 78 % 0.0 in /  0 mm 0.0 W/m2 CLR
02:11 1.7 °F /  -16.8 °C -1.6 °F /  -18.7 °C 1014.4 in /  34347.6 hPa NW 20.9 mph /  33.6 km/h 20.9 mph /  33.6 km/h 79 % 0.0 in /  0 mm 0.0 W/m2 CLR
02:16 1.7 °F /  -16.8 °C -1.6 °F /  -18.7 °C 1014.4 in /  34347.6 hPa WNW 22.2 mph /  35.7 km/h 22.2 mph /  35.7 km/h 79 % 0.0 in /  0 mm 0.0 W/m2 CLR
02:21 1.7 °F /  -16.8 °C -1.6 °F /  -18.7 °C 1014.4 in /  34347.6 hPa NW 25.9 mph /  41.7 km/h 25.9 mph /  41.7 km/h 79 % 0.0 in /  0 mm 0.0 W/m2 CLR
02:26 1.7 °F /  -16.8 °C -1.6 °F /  -18.7 °C 1014.4 in /  34347.6 hPa WNW 25.9 mph /  41.7 km/h 25.9 mph /  41.7 km/h 79 % 0.0 in /  0 mm 0.0 W/m2 CLR
02:31 1.7 °F /  -16.8 °C -1.6 °F /  -18.7 °C 1014.4 in /  34347.6 hPa NW 20.9 mph /  33.6 km/h 20.9 mph /  33.6 km/h 79 % 0.0 in /  0 mm 0.0 W/m2 CLR
02:36 1.7 °F /  -16.8 °C -1.6 °F /  -18.7 °C 1014.4 in /  34347.6 hPa WNW 25.9 mph /  41.7 km/h 25.9 mph /  41.7 km/h 79 % 0.0 in /  0 mm 0.0 W/m2 CLR
02:46 1.7 °F /  -16.8 °C -1.8 °F /  -18.8 °C 1014.4 in /  34347.6 hPa NW 20.9 mph /  33.6 km/h 20.9 mph /  33.6 km/h 78 % 0.0 in /  0 mm 0.0 W/m2 CLR
02:51 1.7 °F /  -16.8 °C -1.8 °F /  -18.8 °C 1014.4 in /  34347.6 hPa NW 22.2 mph /  35.7 km/h 22.2 mph /  35.7 km/h 78 % 0.0 in /  0 mm 0.0 W/m2 CLR
02:56 1.7 °F /  -16.8 °C -1.8 °F /  -18.8 °C 1014.4 in /  34347.6 hPa WNW 18.5 mph /  29.8 km/h 18.5 mph /  29.8 km/h 78 % 0.0 in /  0 mm 0.0 W/m2 CLR
03:01 1.7 °F /  -16.8 °C -1.6 °F /  -18.7 °C 1014.4 in /  34347.6 hPa West 25.9 mph /  41.7 km/h 25.9 mph /  41.7 km/h 79 % 0.0 in /  0 mm 0.0 W/m2 CLR
03:06 1.7 °F /  -16.8 °C -1.8 °F /  -18.8 °C 1014.8 in /  34361.1 hPa NW 20.4 mph /  32.8 km/h 20.4 mph /  32.8 km/h 78 % 0.0 in /  0 mm 0.0 W/m2 CLR
03:11 1.7 °F /  -16.8 °C -1.8 °F /  -18.8 °C 1014.8 in /  34361.1 hPa NW 18.5 mph /  29.8 km/h 18.5 mph /  29.8 km/h 78 % 0.0 in /  0 mm 0.0 W/m2 CLR
03:16 1.1 °F /  -17.2 °C -2.3 °F /  -19.1 °C 1014.8 in /  34361.1 hPa WNW 22.2 mph /  35.7 km/h 22.2 mph /  35.7 km/h 78 % 0.0 in /  0 mm 0.0 W/m2 CLR
03:21 1.7 °F /  -16.8 °C -1.8 °F /  -18.8 °C 1014.8 in /  34361.1 hPa WNW 18.5 mph /  29.8 km/h 18.5 mph /  29.8 km/h 78 % 0.0 in /  0 mm 0.0 W/m2 CLR
03:26 1.7 °F /  -16.8 °C -1.8 °F /  -18.8 °C 1014.8 in /  34361.1 hPa NW 18.5 mph /  29.8 km/h 18.5 mph /  29.8 km/h 78 % 0.0 in /  0 mm 0.0 W/m2 CLR
03:31 1.1 °F /  -17.2 °C -2.3 °F /  -19.1 °C 1014.8 in /  34361.1 hPa WNW 22.2 mph /  35.7 km/h 22.2 mph /  35.7 km/h 78 % 0.0 in /  0 mm 0.0 W/m2 CLR
03:36 1.7 °F /  -16.8 °C -1.8 °F /  -18.8 °C 1014.8 in /  34361.1 hPa WNW 20.4 mph /  32.8 km/h 20.4 mph /  32.8 km/h 78 % 0.0 in /  0 mm 0.0 W/m2 CLR
03:41 1.1 °F /  -17.2 °C -2.3 °F /  -19.1 °C 1014.8 in /  34361.1 hPa NW 22.2 mph /  35.7 km/h 22.2 mph /  35.7 km/h 78 % 0.0 in /  0 mm 0.0 W/m2 CLR
03:46 1.1 °F /  -17.2 °C -2.3 °F /  -19.1 °C 1014.8 in /  34361.1 hPa WNW 22.2 mph /  35.7 km/h 22.2 mph /  35.7 km/h 78 % 0.0 in /  0 mm 0.0 W/m2 CLR
03:51 1.1 °F /  -17.2 °C -2.3 °F /  -19.1 °C 1014.8 in /  34361.1 hPa WNW 16.7 mph /  26.9 km/h 16.7 mph /  26.9 km/h 78 % 0.0 in /  0 mm 0.0 W/m2 CLR
03:56 1.1 °F /  -17.2 °C -2.5 °F /  -19.2 °C 1014.8 in /  34361.1 hPa WNW 22.5 mph /  36.2 km/h 22.5 mph /  36.2 km/h 77 % 0.0 in /  0 mm 0.0 W/m2 CLR
04:01 1.1 °F /  -17.2 °C -2.5 °F /  -19.2 °C 1014.8 in /  34361.1 hPa WNW 27.8 mph /  44.7 km/h 27.8 mph /  44.7 km/h 77 % 0.0 in /  0 mm 0.0 W/m2 CLR
04:06 1.7 °F /  -16.8 °C -1.8 °F /  -18.8 °C 1014.8 in /  34361.1 hPa WNW 25.9 mph /  41.7 km/h 25.9 mph /  41.7 km/h 78 % 0.0 in /  0 mm 0.0 W/m2 CLR
04:11 1.7 °F /  -16.8 °C -1.9 °F /  -18.8 °C 1014.8 in /  34361.1 hPa NW 25.7 mph /  41.4 km/h 25.7 mph /  41.4 km/h 77 % 0.0 in /  0 mm 0.0 W/m2 CLR
04:16 1.7 °F /  -16.8 °C -1.9 °F /  -18.8 °C 1014.8 in /  34361.1 hPa WNW 27.8 mph /  44.7 km/h 27.8 mph /  44.7 km/h 77 % 0.0 in /  0 mm 0.0 W/m2 CLR
04:21 1.7 °F /  -16.8 °C -1.9 °F /  -18.8 °C 1014.4 in /  34347.6 hPa NW 24.1 mph /  38.8 km/h 24.1 mph /  38.8 km/h 77 % 0.0 in /  0 mm 0.0 W/m2 CLR
04:26 1.7 °F /  -16.8 °C -1.9 °F /  -18.8 °C 1014.8 in /  34361.1 hPa WNW 22.2 mph /  35.7 km/h 22.2 mph /  35.7 km/h 77 % 0.0 in /  0 mm 0.0 W/m2 CLR
04:31 1.7 °F /  -16.8 °C -1.9 °F /  -18.8 °C 1014.4 in /  34347.6 hPa NW 22.2 mph /  35.7 km/h 22.2 mph /  35.7 km/h 77 % 0.0 in /  0 mm 0.0 W/m2 CLR
04:36 1.7 °F /  -16.8 °C -1.9 °F /  -18.8 °C 1014.8 in /  34361.1 hPa WNW 18.5 mph /  29.8 km/h 18.5 mph /  29.8 km/h 77 % 0.0 in /  0 mm 0.0 W/m2 CLR
04:41 1.7 °F /  -16.8 °C -1.9 °F /  -18.8 °C 1014.8 in /  34361.1 hPa WNW 27.8 mph /  44.7 km/h 27.8 mph /  44.7 km/h 77 % 0.0 in /  0 mm 0.0 W/m2 CLR
04:46 1.1 °F /  -17.2 °C -2.5 °F /  -19.2 °C 1014.8 in /  34361.1 hPa WNW 18.5 mph /  29.8 km/h 18.5 mph /  29.8 km/h 77 % 0.0 in /  0 mm 0.0 W/m2 CLR
04:51 1.1 °F /  -17.2 °C -2.5 °F /  -19.2 °C 1014.8 in /  34361.1 hPa WNW 24.1 mph /  38.8 km/h 24.1 mph /  38.8 km/h 77 % 0.0 in /  0 mm 0.0 W/m2 CLR
04:56 1.1 °F /  -17.2 °C -2.5 °F /  -19.2 °C 1014.8 in /  34361.1 hPa NW 24.1 mph /  38.8 km/h 24.1 mph /  38.8 km/h 77 % 0.0 in /  0 mm 0.0 W/m2 CLR
05:01 1.7 °F /  -16.8 °C -1.9 °F /  -18.8 °C 1014.8 in /  34361.1 hPa NW 24.1 mph /  38.8 km/h 24.1 mph /  38.8 km/h 77 % 0.0 in /  0 mm 0.0 W/m2 CLR
05:06 1.7 °F /  -16.8 °C -1.9 °F /  -18.8 °C 1014.8 in /  34361.1 hPa NW 22.2 mph /  35.7 km/h 22.2 mph /  35.7 km/h 77 % 0.0 in /  0 mm 0.0 W/m2 CLR
05:11 1.7 °F /  -16.8 °C -1.9 °F /  -18.8 °C 1014.8 in /  34361.1 hPa WNW 20.4 mph /  32.8 km/h 20.4 mph /  32.8 km/h 77 % 0.0 in /  0 mm 0.0 W/m2 CLR
05:16 1.7 °F /  -16.8 °C -1.9 °F /  -18.8 °C 1014.8 in /  34361.1 hPa NW 18.5 mph /  29.8 km/h 18.5 mph /  29.8 km/h 77 % 0.0 in /  0 mm 0.0 W/m2 CLR
05:21 1.7 °F /  -16.8 °C -1.9 °F /  -18.8 °C 1014.8 in /  34361.1 hPa NW 25.9 mph /  41.7 km/h 25.9 mph /  41.7 km/h 77 % 0.0 in /  0 mm 0.0 W/m2 CLR
05:26 1.7 °F /  -16.8 °C -1.9 °F /  -18.8 °C 1014.8 in /  34361.1 hPa NNW 18.5 mph /  29.8 km/h 18.5 mph /  29.8 km/h 77 % 0.0 in /  0 mm 0.0 W/m2 CLR
05:31 1.7 °F /  -16.8 °C -1.9 °F /  -18.8 °C 1014.8 in /  34361.1 hPa NW 20.4 mph /  32.8 km/h 20.4 mph /  32.8 km/h 77 % 0.0 in /  0 mm 0.0 W/m2 CLR
05:36 1.7 °F /  -16.8 °C -1.9 °F /  -18.8 °C 1014.8 in /  34361.1 hPa NW 22.2 mph /  35.7 km/h 22.2 mph /  35.7 km/h 77 % 0.0 in /  0 mm 0.0 W/m2 CLR
05:41 1.7 °F /  -16.8 °C -1.9 °F /  -18.8 °C 1014.8 in /  34361.1 hPa NW 20.9 mph /  33.6 km/h 20.9 mph /  33.6 km/h 77 % 0.0 in /  0 mm 0.0 W/m2 CLR
05:46 1.7 °F /  -16.8 °C -1.9 °F /  -18.8 °C 1014.8 in /  34361.1 hPa NW 27.8 mph /  44.7 km/h 27.8 mph /  44.7 km/h 77 % 0.0 in /  0 mm 0.0 W/m2 CLR
05:51 1.7 °F /  -16.8 °C -1.9 °F /  -18.8 °C 1014.8 in /  34361.1 hPa WNW 27.8 mph /  44.7 km/h 27.8 mph /  44.7 km/h 77 % 0.0 in /  0 mm 0.0 W/m2 CLR
05:56 1.7 °F /  -16.8 °C -1.9 °F /  -18.8 °C 1014.8 in /  34361.1 hPa WNW 18.5 mph /  29.8 km/h 18.5 mph /  29.8 km/h 77 % 0.0 in /  0 mm 0.0 W/m2 CLR
06:01 1.7 °F /  -16.8 °C -1.9 °F /  -18.8 °C 1015.1 in /  34371.3 hPa NW 18.5 mph /  29.8 km/h 18.5 mph /  29.8 km/h 77 % 0.0 in /  0 mm 0.0 W/m2 CLR
06:06 1.1 °F /  -17.2 °C -2.5 °F /  -19.2 °C 1015.1 in /  34371.3 hPa WNW 25.9 mph /  41.7 km/h 25.9 mph /  41.7 km/h 77 % 0.0 in /  0 mm 0.0 W/m2 CLR
06:11 1.1 °F /  -17.2 °C -2.7 °F /  -19.3 °C 1014.8 in /  34361.1 hPa WNW 31.5 mph /  50.7 km/h 31.5 mph /  50.7 km/h 76 % 0.0 in /  0 mm 0.0 W/m2 CLR
06:16 1.7 °F /  -16.8 °C -2.1 °F /  -18.9 °C 1014.8 in /  34361.1 hPa WNW 31.5 mph /  50.7 km/h 31.5 mph /  50.7 km/h 76 % 0.0 in /  0 mm 0.0 W/m2 CLR
06:21 1.7 °F /  -16.8 °C -2.1 °F /  -18.9 °C 1014.8 in /  34361.1 hPa NW 27.8 mph /  44.7 km/h 27.8 mph /  44.7 km/h 76 % 0.0 in /  0 mm 0.0 W/m2 CLR
06:26 1.7 °F /  -16.8 °C -2.1 °F /  -18.9 °C 1015.1 in /  34371.3 hPa NW 24.1 mph /  38.8 km/h 24.1 mph /  38.8 km/h 76 % 0.0 in /  0 mm 0.0 W/m2 CLR
06:31 1.7 °F /  -16.8 °C -2.1 °F /  -18.9 °C 1015.1 in /  34371.3 hPa WNW 29.6 mph /  47.6 km/h 29.6 mph /  47.6 km/h 76 % 0.0 in /  0 mm 0.0 W/m2 CLR
06:36 1.7 °F /  -16.8 °C -2.1 °F /  -18.9 °C 1015.1 in /  34371.3 hPa NW 31.5 mph /  50.7 km/h 31.5 mph /  50.7 km/h 76 % 0.0 in /  0 mm 0.0 W/m2 CLR
06:41 1.7 °F /  -16.8 °C -1.9 °F /  -18.8 °C 1015.1 in /  34371.3 hPa NW 31.5 mph /  50.7 km/h 31.5 mph /  50.7 km/h 77 % 0.0 in /  0 mm 0.0 W/m2 CLR
06:46 1.7 °F /  -16.8 °C -1.9 °F /  -18.8 °C 1015.1 in /  34371.3 hPa NW 24.1 mph /  38.8 km/h 24.1 mph /  38.8 km/h 77 % 0.0 in /  0 mm 0.0 W/m2 CLR
06:51 1.7 °F /  -16.8 °C -1.9 °F /  -18.8 °C 1015.1 in /  34371.3 hPa WNW 27.8 mph /  44.7 km/h 27.8 mph /  44.7 km/h 77 % 0.0 in /  0 mm 0.0 W/m2 CLR
06:56 1.7 °F /  -16.8 °C -1.9 °F /  -18.8 °C 1015.1 in /  34371.3 hPa WNW 31.5 mph /  50.7 km/h 31.5 mph /  50.7 km/h 77 % 0.0 in /  0 mm 0.0 W/m2 CLR
07:01 1.7 °F /  -16.8 °C -1.8 °F /  -18.8 °C 1015.1 in /  34371.3 hPa WNW 29.6 mph /  47.6 km/h 29.6 mph /  47.6 km/h 78 % 0.0 in /  0 mm 0.0 W/m2 CLR
07:06 1.7 °F /  -16.8 °C -1.8 °F /  -18.8 °C 1015.1 in /  34371.3 hPa NW 18.5 mph /  29.8 km/h 18.5 mph /  29.8 km/h 78 % 0.0 in /  0 mm 0.0 W/m2 CLR
07:11 1.7 °F /  -16.8 °C -1.8 °F /  -18.8 °C 1015.1 in /  34371.3 hPa WNW 27.8 mph /  44.7 km/h 27.8 mph /  44.7 km/h 78 % 0.0 in /  0 mm 0.0 W/m2 CLR
07:16 1.1 °F /  -17.2 °C -2.3 °F /  -19.1 °C 1015.5 in /  34384.8 hPa NW 24.1 mph /  38.8 km/h 24.1 mph /  38.8 km/h 78 % 0.0 in /  0 mm 0.0 W/m2 CLR
07:21 1.1 °F /  -17.2 °C -2.3 °F /  -19.1 °C 1015.5 in /  34384.8 hPa WNW 29.6 mph /  47.6 km/h 29.6 mph /  47.6 km/h 78 % 0.0 in /  0 mm 0.0 W/m2 CLR
07:26 1.1 °F /  -17.2 °C -2.3 °F /  -19.1 °C 1015.5 in /  34384.8 hPa NW 31.5 mph /  50.7 km/h 31.5 mph /  50.7 km/h 78 % 0.0 in /  0 mm 0.0 W/m2 CLR
07:31 1.1 °F /  -17.2 °C -2.1 °F /  -18.9 °C 1015.5 in /  34384.8 hPa NW 29.6 mph /  47.6 km/h 29.6 mph /  47.6 km/h 79 % 0.0 in /  0 mm 0.0 W/m2 CLR
07:36 1.1 °F /  -17.2 °C -2.1 °F /  -18.9 °C 1015.5 in /  34384.8 hPa WNW 24.1 mph /  38.8 km/h 24.1 mph /  38.8 km/h 79 % 0.0 in /  0 mm 0.0 W/m2 CLR
07:41 1.1 °F /  -17.2 °C -2.3 °F /  -19.1 °C 1015.5 in /  34384.8 hPa NW 29.6 mph /  47.6 km/h 29.6 mph /  47.6 km/h 78 % 0.0 in /  0 mm 0.0 W/m2 CLR
07:46 1.1 °F /  -17.2 °C -2.3 °F /  -19.1 °C 1015.8 in /  34395 hPa WNW 18.5 mph /  29.8 km/h 18.5 mph /  29.8 km/h 78 % 0.0 in /  0 mm 0.0 W/m2 CLR
07:51 0.6 °F /  -17.4 °C -2.7 °F /  -19.3 °C 1015.8 in /  34395 hPa WNW 18.5 mph /  29.8 km/h 18.5 mph /  29.8 km/h 79 % 0.0 in /  0 mm 0.0 W/m2 CLR
07:56 0.6 °F /  -17.4 °C -2.7 °F /  -19.3 °C 1015.8 in /  34395 hPa WNW 17.7 mph /  28.5 km/h 17.7 mph /  28.5 km/h 79 % 0.0 in /  0 mm 0.0 W/m2 CLR
08:01 0.6 °F /  -17.4 °C -2.7 °F /  -19.3 °C 1015.8 in /  34395 hPa WNW 22.2 mph /  35.7 km/h 22.2 mph /  35.7 km/h 79 % 0.0 in /  0 mm 0.0 W/m2 OVC
08:06 0.6 °F /  -17.4 °C -2.5 °F /  -19.2 °C 1015.8 in /  34395 hPa WNW 16.7 mph /  26.9 km/h 16.7 mph /  26.9 km/h 80 % 0.0 in /  0 mm 5.0 W/m2 OVC
08:11 0.6 °F /  -17.4 °C -2.7 °F /  -19.3 °C 1016.1 in /  34405.1 hPa NW 31.5 mph /  50.7 km/h 31.5 mph /  50.7 km/h 79 % 0.0 in /  0 mm 7.0 W/m2 BKN
08:16 0.6 °F /  -17.4 °C -2.7 °F /  -19.3 °C 1016.1 in /  34405.1 hPa WNW 16.7 mph /  26.9 km/h 16.7 mph /  26.9 km/h 79 % 0.0 in /  0 mm 11.0 W/m2 BKN
08:21 0.6 °F /  -17.4 °C -2.8 °F /  -19.3 °C 1016.1 in /  34405.1 hPa WNW 24.1 mph /  38.8 km/h 24.1 mph /  38.8 km/h 78 % 0.0 in /  0 mm 14.0 W/m2 BKN
08:26 0.6 °F /  -17.4 °C -3.0 °F /  -19.4 °C 1016.1 in /  34405.1 hPa NW 18.5 mph /  29.8 km/h 18.5 mph /  29.8 km/h 77 % 0.0 in /  0 mm 18.0 W/m2 BKN
08:31 0.6 °F /  -17.4 °C -3.0 °F /  -19.4 °C 1016.1 in /  34405.1 hPa WNW 24.1 mph /  38.8 km/h 24.1 mph /  38.8 km/h 77 % 0.0 in /  0 mm 19.0 W/m2 BKN
08:36 1.1 °F /  -17.2 °C -2.5 °F /  -19.2 °C 1016.1 in /  34405.1 hPa WNW 20.9 mph /  33.6 km/h 20.9 mph /  33.6 km/h 77 % 0.0 in /  0 mm 25.0 W/m2 BKN
08:41 1.1 °F /  -17.2 °C -2.7 °F /  -19.3 °C 1016.1 in /  34405.1 hPa WNW 22.2 mph /  35.7 km/h 22.2 mph /  35.7 km/h 76 % 0.0 in /  0 mm 33.0 W/m2 BKN
08:46 1.1 °F /  -17.2 °C -2.7 °F /  -19.3 °C 1016.1 in /  34405.1 hPa NW 24.1 mph /  38.8 km/h 24.1 mph /  38.8 km/h 76 % 0.0 in /  0 mm 40.0 W/m2 BKN
08:51 1.1 °F /  -17.2 °C -2.7 °F /  -19.3 °C 1016.1 in /  34405.1 hPa WNW 22.5 mph /  36.2 km/h 22.5 mph /  36.2 km/h 76 % 0.0 in /  0 mm 58.0 W/m2 SCT
08:56 1.7 °F /  -16.8 °C -2.3 °F /  -19.1 °C 1016.5 in /  34418.7 hPa WNW 22.2 mph /  35.7 km/h 22.2 mph /  35.7 km/h 75 % 0.0 in /  0 mm 69.0 W/m2 FEW
09:01 1.7 °F /  -16.8 °C -2.3 °F /  -19.1 °C 1016.5 in /  34418.7 hPa NW 24.1 mph /  38.8 km/h 24.1 mph /  38.8 km/h 75 % 0.0 in /  0 mm 83.0 W/m2 FEW
09:06 1.7 °F /  -16.8 °C -2.3 °F /  -19.1 °C 1016.5 in /  34418.7 hPa NW 20.4 mph /  32.8 km/h 20.4 mph /  32.8 km/h 75 % 0.0 in /  0 mm 100.0 W/m2 FEW
09:11 1.7 °F /  -16.8 °C -2.3 °F /  -19.1 °C 1016.5 in /  34418.7 hPa NW 22.2 mph /  35.7 km/h 22.2 mph /  35.7 km/h 75 % 0.0 in /  0 mm 116.0 W/m2 CLR
09:16 1.7 °F /  -16.8 °C -2.3 °F /  -19.1 °C 1016.5 in /  34418.7 hPa NW 29.6 mph /  47.6 km/h 29.6 mph /  47.6 km/h 75 % 0.0 in /  0 mm 123.0 W/m2 CLR
09:21 2.2 °F /  -16.6 °C -1.8 °F /  -18.8 °C 1016.5 in /  34418.7 hPa NW 29.6 mph /  47.6 km/h 29.6 mph /  47.6 km/h 75 % 0.0 in /  0 mm 148.0 W/m2 CLR
09:26 2.2 °F /  -16.6 °C -1.9 °F /  -18.8 °C 1016.5 in /  34418.7 hPa West 25.9 mph /  41.7 km/h 25.9 mph /  41.7 km/h 74 % 0.0 in /  0 mm 165.0 W/m2 CLR
09:31 2.2 °F /  -16.6 °C -2.1 °F /  -18.9 °C 1016.8 in /  34428.8 hPa NW 27.8 mph /  44.7 km/h 27.8 mph /  44.7 km/h 73 % 0.0 in /  0 mm 172.0 W/m2 CLR
09:36 2.2 °F /  -16.6 °C -1.9 °F /  -18.8 °C 1016.8 in /  34428.8 hPa NW 31.5 mph /  50.7 km/h 31.5 mph /  50.7 km/h 74 % 0.0 in /  0 mm 186.0 W/m2 CLR
09:41 2.8 °F /  -16.2 °C -1.8 °F /  -18.8 °C 1016.8 in /  34428.8 hPa NNW 24.1 mph /  38.8 km/h 24.1 mph /  38.8 km/h 72 % 0.0 in /  0 mm 220.0 W/m2 CLR
09:46 2.8 °F /  -16.2 °C -1.6 °F /  -18.7 °C 1016.8 in /  34428.8 hPa NW 22.2 mph /  35.7 km/h 22.2 mph /  35.7 km/h 73 % 0.0 in /  0 mm 236.0 W/m2 CLR
09:51 2.8 °F /  -16.2 °C -1.6 °F /  -18.7 °C 1016.8 in /  34428.8 hPa WNW 18.5 mph /  29.8 km/h 18.5 mph /  29.8 km/h 73 % 0.0 in /  0 mm 253.0 W/m2 CLR
09:56 2.8 °F /  -16.2 °C -1.6 °F /  -18.7 °C 1016.8 in /  34428.8 hPa NNW 29.6 mph /  47.6 km/h 29.6 mph /  47.6 km/h 73 % 0.0 in /  0 mm 269.0 W/m2 CLR
10:01 2.8 °F /  -16.2 °C -1.8 °F /  -18.8 °C 1017.2 in /  34442.4 hPa NNW 29.6 mph /  47.6 km/h 29.6 mph /  47.6 km/h 72 % 0.0 in /  0 mm 283.0 W/m2 CLR
10:06 3.3 °F /  -15.9 °C -1.1 °F /  -18.4 °C 1017.2 in /  34442.4 hPa NW 30.6 mph /  49.2 km/h 30.6 mph /  49.2 km/h 73 % 0.0 in /  0 mm 295.0 W/m2 CLR
10:11 3.3 °F /  -15.9 °C -1.2 °F /  -18.4 °C 1017.2 in /  34442.4 hPa NNW 37.0 mph /  59.5 km/h 37.0 mph /  59.5 km/h 72 % 0.0 in /  0 mm 308.0 W/m2 CLR
10:16 3.3 °F /  -15.9 °C -1.2 °F /  -18.4 °C 1017.2 in /  34442.4 hPa NW 31.5 mph /  50.7 km/h 31.5 mph /  50.7 km/h 72 % 0.0 in /  0 mm 322.0 W/m2 CLR
10:21 3.3 °F /  -15.9 °C -1.4 °F /  -18.6 °C 1017.5 in /  34452.6 hPa NW 35.2 mph /  56.6 km/h 35.2 mph /  56.6 km/h 71 % 0.0 in /  0 mm 332.0 W/m2 CLR
10:26 3.3 °F /  -15.9 °C -1.4 °F /  -18.6 °C 1017.2 in /  34442.4 hPa NW 42.6 mph /  68.6 km/h 42.6 mph /  68.6 km/h 71 % 0.0 in /  0 mm 350.0 W/m2 CLR
10:31 3.9 °F /  -15.6 °C -0.7 °F /  -18.2 °C 1017.5 in /  34452.6 hPa NNW 35.2 mph /  56.6 km/h 35.2 mph /  56.6 km/h 72 % 0.0 in /  0 mm 362.0 W/m2 CLR
10:36 3.9 °F /  -15.6 °C -0.7 °F /  -18.2 °C 1017.5 in /  34452.6 hPa NW 33.3 mph /  53.6 km/h 33.3 mph /  53.6 km/h 72 % 0.0 in /  0 mm 373.0 W/m2 CLR
10:42 3.9 °F /  -15.6 °C -0.9 °F /  -18.3 °C 1017.5 in /  34452.6 hPa North 35.2 mph /  56.6 km/h 35.2 mph /  56.6 km/h 71 % 0.0 in /  0 mm 388.0 W/m2 CLR
10:47 3.9 °F /  -15.6 °C -1.1 °F /  -18.4 °C 1017.8 in /  34462.7 hPa NNW 38.9 mph /  62.6 km/h 38.9 mph /  62.6 km/h 70 % 0.0 in /  0 mm 401.0 W/m2 CLR
10:52 4.4 °F /  -15.3 °C -0.6 °F /  -18.1 °C 1017.8 in /  34462.7 hPa NNW 46.3 mph /  74.5 km/h 46.3 mph /  74.5 km/h 70 % 0.0 in /  0 mm 413.0 W/m2 CLR
10:57 4.4 °F /  -15.3 °C -0.6 °F /  -18.1 °C 1017.8 in /  34462.7 hPa NNW 31.5 mph /  50.7 km/h 31.5 mph /  50.7 km/h 70 % 0.0 in /  0 mm 425.0 W/m2 CLR
10:58 4.4 °F /  -15.3 °C -0.3 °F /  -17.9 °C 1017.8 in /  34462.7 hPa NW 29.6 mph /  47.6 km/h 29.6 mph /  47.6 km/h 71 % 0.0 in /  0 mm 425.0 W/m2 CLR
11:03 4.4 °F /  -15.3 °C -0.8 °F /  -18.2 °C 1017.8 in /  34462.7 hPa NW 42.6 mph /  68.6 km/h 42.6 mph /  68.6 km/h 69 % 0.0 in /  0 mm 436.0 W/m2 CLR
11:08 4.4 °F /  -15.3 °C -0.6 °F /  -18.1 °C 1018.2 in /  34476.3 hPa NNW 42.6 mph /  68.6 km/h 42.6 mph /  68.6 km/h 70 % 0.0 in /  0 mm 443.0 W/m2 CLR
11:13 4.4 °F /  -15.3 °C -0.8 °F /  -18.2 °C 1018.2 in /  34476.3 hPa NNW 33.3 mph /  53.6 km/h 33.3 mph /  53.6 km/h 69 % 0.0 in /  0 mm 457.0 W/m2 CLR
11:18 4.4 °F /  -15.3 °C -0.8 °F /  -18.2 °C 1018.2 in /  34476.3 hPa North 37.0 mph /  59.5 km/h 37.0 mph /  59.5 km/h 69 % 0.0 in /  0 mm 466.0 W/m2 CLR
11:23 4.4 °F /  -15.3 °C -0.9 °F /  -18.3 °C 1018.2 in /  34476.3 hPa NW 29.6 mph /  47.6 km/h 29.6 mph /  47.6 km/h 68 % 0.0 in /  0 mm 482.0 W/m2 CLR
11:28 4.4 °F /  -15.3 °C -0.8 °F /  -18.2 °C 1018.2 in /  34476.3 hPa NNW 29.0 mph /  46.7 km/h 29.0 mph /  46.7 km/h 69 % 0.0 in /  0 mm 487.0 W/m2 CLR
11:33 5.0 °F /  -15 °C -0.2 °F /  -17.9 °C 1018.2 in /  34476.3 hPa NNW 27.8 mph /  44.7 km/h 27.8 mph /  44.7 km/h 69 % 0.0 in /  0 mm 473.0 W/m2 CLR
11:38 5.0 °F /  -15 °C -0.6 °F /  -18.1 °C 1018.5 in /  34486.4 hPa NNW 40.7 mph /  65.5 km/h 40.7 mph /  65.5 km/h 67 % 0.0 in /  0 mm 487.0 W/m2 CLR
11:43 5.0 °F /  -15 °C -0.2 °F /  -17.9 °C 1018.5 in /  34486.4 hPa NW 24.1 mph /  38.8 km/h 24.1 mph /  38.8 km/h 69 % 0.0 in /  0 mm 490.0 W/m2 CLR
11:48 5.0 °F /  -15 °C -0.6 °F /  -18.1 °C 1018.5 in /  34486.4 hPa NW 32.2 mph /  51.8 km/h 32.2 mph /  51.8 km/h 67 % 0.0 in /  0 mm 482.0 W/m2 CLR
11:58 5.6 °F /  -14.7 °C -0.1 °F /  -17.8 °C 1018.5 in /  34486.4 hPa NW 22.2 mph /  35.7 km/h 22.2 mph /  35.7 km/h 67 % 0.0 in /  0 mm 557.0 W/m2 CLR
12:03 6.1 °F /  -14.4 °C 0.7 °F /  -17.4 °C 1018.5 in /  34486.4 hPa NNW 25.9 mph /  41.7 km/h 25.9 mph /  41.7 km/h 68 % 0.0 in /  0 mm 541.0 W/m2 CLR
12:08 6.1 °F /  -14.4 °C 0.0 °F /  -17.8 °C 1018.8 in /  34496.6 hPa NW 35.2 mph /  56.6 km/h 35.2 mph /  56.6 km/h 65 % 0.0 in /  0 mm 568.0 W/m2 CLR
12:13 5.6 °F /  -14.7 °C -0.3 °F /  -17.9 °C 1018.8 in /  34496.6 hPa NW 31.5 mph /  50.7 km/h 31.5 mph /  50.7 km/h 66 % 0.0 in /  0 mm 548.0 W/m2 CLR
12:18 5.6 °F /  -14.7 °C -0.5 °F /  -18.1 °C 1018.8 in /  34496.6 hPa North 37.0 mph /  59.5 km/h 37.0 mph /  59.5 km/h 65 % 0.0 in /  0 mm 540.0 W/m2 CLR
12:23 6.1 °F /  -14.4 °C 0.4 °F /  -17.6 °C 1018.5 in /  34486.4 hPa North 29.6 mph /  47.6 km/h 29.6 mph /  47.6 km/h 67 % 0.0 in /  0 mm 545.0 W/m2 CLR
12:28 6.1 °F /  -14.4 °C 0.7 °F /  -17.4 °C 1018.5 in /  34486.4 hPa NW 25.9 mph /  41.7 km/h 25.9 mph /  41.7 km/h 68 % 0.0 in /  0 mm 559.0 W/m2 CLR
12:33 6.1 °F /  -14.4 °C 0.2 °F /  -17.7 °C 1018.5 in /  34486.4 hPa NNW 37.0 mph /  59.5 km/h 37.0 mph /  59.5 km/h 66 % 0.0 in /  0 mm 570.0 W/m2 CLR
12:38 6.1 °F /  -14.4 °C 0.2 °F /  -17.7 °C 1018.5 in /  34486.4 hPa NW 31.5 mph /  50.7 km/h 31.5 mph /  50.7 km/h 66 % 0.0 in /  0 mm 577.0 W/m2 CLR
12:43 6.7 °F /  -14.1 °C 0.9 °F /  -17.3 °C 1018.5 in /  34486.4 hPa NW 29.0 mph /  46.7 km/h 29.0 mph /  46.7 km/h 67 % 0.0 in /  0 mm 577.0 W/m2 CLR
12:48 6.7 °F /  -14.1 °C 0.6 °F /  -17.4 °C 1018.5 in /  34486.4 hPa NW 31.5 mph /  50.7 km/h 31.5 mph /  50.7 km/h 65 % 0.0 in /  0 mm 606.0 W/m2 CLR
12:53 6.7 °F /  -14.1 °C 0.8 °F /  -17.3 °C 1018.5 in /  34486.4 hPa North 25.9 mph /  41.7 km/h 25.9 mph /  41.7 km/h 66 % 0.0 in /  0 mm 594.0 W/m2 CLR
12:58 6.7 °F /  -14.1 °C 0.8 °F /  -17.3 °C 1018.5 in /  34486.4 hPa North 31.5 mph /  50.7 km/h 31.5 mph /  50.7 km/h 66 % 0.0 in /  0 mm 617.0 W/m2 CLR
13:03 6.7 °F /  -14.1 °C 0.1 °F /  -17.7 °C 1018.5 in /  34486.4 hPa North 40.7 mph /  65.5 km/h 40.7 mph /  65.5 km/h 63 % 0.0 in /  0 mm 675.0 W/m2 CLR
13:08 6.7 °F /  -14.1 °C 0.3 °F /  -17.6 °C 1018.5 in /  34486.4 hPa North 31.5 mph /  50.7 km/h 31.5 mph /  50.7 km/h 64 % 0.0 in /  0 mm 615.0 W/m2 CLR
13:13 6.7 °F /  -14.1 °C 0.3 °F /  -17.6 °C 1018.5 in /  34486.4 hPa North 27.8 mph /  44.7 km/h 27.8 mph /  44.7 km/h 64 % 0.0 in /  0 mm 640.0 W/m2 CLR
13:19 6.7 °F /  -14.1 °C 0.3 °F /  -17.6 °C 1018.5 in /  34486.4 hPa NNW 31.5 mph /  50.7 km/h 31.5 mph /  50.7 km/h 64 % 0.0 in /  0 mm 153.0 W/m2 CLR
13:24 6.7 °F /  -14.1 °C 0.6 °F /  -17.4 °C 1018.5 in /  34486.4 hPa North 33.3 mph /  53.6 km/h 33.3 mph /  53.6 km/h 65 % 0.0 in /  0 mm 661.0 W/m2 CLR
13:29 7.2 °F /  -13.8 °C 0.8 °F /  -17.3 °C 1018.5 in /  34486.4 hPa North 37.0 mph /  59.5 km/h 37.0 mph /  59.5 km/h 64 % 0.0 in /  0 mm 664.0 W/m2 CLR
13:34 7.2 °F /  -13.8 °C 0.4 °F /  -17.6 °C 1018.5 in /  34486.4 hPa North 38.9 mph /  62.6 km/h 38.9 mph /  62.6 km/h 62 % 0.0 in /  0 mm 682.0 W/m2 CLR
13:39 7.2 °F /  -13.8 °C 0.8 °F /  -17.3 °C 1018.5 in /  34486.4 hPa NNE 29.6 mph /  47.6 km/h 29.6 mph /  47.6 km/h 64 % 0.0 in /  0 mm 684.0 W/m2 CLR
13:44 7.8 °F /  -13.4 °C 1.2 °F /  -17.1 °C 1018.2 in /  34476.3 hPa NW 31.5 mph /  50.7 km/h 31.5 mph /  50.7 km/h 63 % 0.0 in /  0 mm 724.0 W/m2 CLR
13:49 7.8 °F /  -13.4 °C 1.4 °F /  -17 °C 1018.5 in /  34486.4 hPa North 27.8 mph /  44.7 km/h 27.8 mph /  44.7 km/h 64 % 0.0 in /  0 mm 684.0 W/m2 CLR
13:54 7.8 °F /  -13.4 °C 1.2 °F /  -17.1 °C 1018.5 in /  34486.4 hPa North 35.2 mph /  56.6 km/h 35.2 mph /  56.6 km/h 63 % 0.0 in /  0 mm 255.0 W/m2 CLR
13:59 7.2 °F /  -13.8 °C 0.7 °F /  -17.4 °C 1018.5 in /  34486.4 hPa North 37.0 mph /  59.5 km/h 37.0 mph /  59.5 km/h 63 % 0.0 in /  0 mm 682.0 W/m2 CLR
14:04 7.2 °F /  -13.8 °C 0.2 °F /  -17.7 °C 1018.5 in /  34486.4 hPa North 42.6 mph /  68.6 km/h 42.6 mph /  68.6 km/h 61 % 0.0 in /  0 mm 664.0 W/m2 CLR
14:09 7.2 °F /  -13.8 °C 0.7 °F /  -17.4 °C 1018.5 in /  34486.4 hPa NNW 37.0 mph /  59.5 km/h 37.0 mph /  59.5 km/h 63 % 0.0 in /  0 mm 661.0 W/m2 CLR
14:14 6.7 °F /  -14.1 °C 0.3 °F /  -17.6 °C 1018.5 in /  34486.4 hPa North 27.4 mph /  44.1 km/h 27.4 mph /  44.1 km/h 64 % 0.0 in /  0 mm 206.0 W/m2 CLR
14:19 6.7 °F /  -14.1 °C 0.3 °F /  -17.6 °C 1018.5 in /  34486.4 hPa NW 31.5 mph /  50.7 km/h 31.5 mph /  50.7 km/h 64 % 0.0 in /  0 mm 613.0 W/m2 CLR
14:24 7.2 °F /  -13.8 °C 0.7 °F /  -17.4 °C 1018.5 in /  34486.4 hPa NNW 37.0 mph /  59.5 km/h 37.0 mph /  59.5 km/h 63 % 0.0 in /  0 mm 605.0 W/m2 CLR
14:29 6.7 °F /  -14.1 °C -0.1 °F /  -17.8 °C 1018.2 in /  34476.3 hPa NW 29.6 mph /  47.6 km/h 29.6 mph /  47.6 km/h 62 % 0.0 in /  0 mm 206.0 W/m2 CLR
14:34 6.7 °F /  -14.1 °C -0.1 °F /  -17.8 °C 1018.2 in /  34476.3 hPa NNW 31.5 mph /  50.7 km/h 31.5 mph /  50.7 km/h 62 % 0.0 in /  0 mm 148.0 W/m2 CLR
14:39 6.7 °F /  -14.1 °C 0.1 °F /  -17.7 °C 1018.5 in /  34486.4 hPa NNW 24.1 mph /  38.8 km/h 24.1 mph /  38.8 km/h 63 % 0.0 in /  0 mm 162.0 W/m2 CLR
14:44 6.7 °F /  -14.1 °C 0.1 °F /  -17.7 °C 1018.2 in /  34476.3 hPa NW 33.3 mph /  53.6 km/h 33.3 mph /  53.6 km/h 63 % 0.0 in /  0 mm 165.0 W/m2 CLR
14:49 6.1 °F /  -14.4 °C -0.2 °F /  -17.9 °C 1018.2 in /  34476.3 hPa NW 32.2 mph /  51.8 km/h 32.2 mph /  51.8 km/h 64 % 0.0 in /  0 mm 176.0 W/m2 CLR
14:54 6.1 °F /  -14.4 °C -0.8 °F /  -18.2 °C 1018.2 in /  34476.3 hPa NNW 37.0 mph /  59.5 km/h 37.0 mph /  59.5 km/h 61 % 0.0 in /  0 mm 135.0 W/m2 CLR
14:59 6.7 °F /  -14.1 °C 0.1 °F /  -17.7 °C 1018.2 in /  34476.3 hPa North 32.2 mph /  51.8 km/h 32.2 mph /  51.8 km/h 63 % 0.0 in /  0 mm 554.0 W/m2 CLR
15:04 6.7 °F /  -14.1 °C 0.1 °F /  -17.7 °C 1018.2 in /  34476.3 hPa NNW 27.8 mph /  44.7 km/h 27.8 mph /  44.7 km/h 63 % 0.0 in /  0 mm 197.0 W/m2 CLR
15:09 6.7 °F /  -14.1 °C 0.1 °F /  -17.7 °C 1018.2 in /  34476.3 hPa NNW 33.3 mph /  53.6 km/h 33.3 mph /  53.6 km/h 63 % 0.0 in /  0 mm 104.0 W/m2 CLR
15:14 6.1 °F /  -14.4 °C -0.4 °F /  -18 °C 1018.2 in /  34476.3 hPa NW 31.5 mph /  50.7 km/h 31.5 mph /  50.7 km/h 63 % 0.0 in /  0 mm 149.0 W/m2 CLR
15:19 6.1 °F /  -14.4 °C -0.6 °F /  -18.1 °C 1017.8 in /  34462.7 hPa North 29.6 mph /  47.6 km/h 29.6 mph /  47.6 km/h 62 % 0.0 in /  0 mm 134.0 W/m2 CLR
15:24 6.7 °F /  -14.1 °C 0.1 °F /  -17.7 °C 1018.2 in /  34476.3 hPa North 33.3 mph /  53.6 km/h 33.3 mph /  53.6 km/h 63 % 0.0 in /  0 mm 123.0 W/m2 CLR
15:29 6.1 °F /  -14.4 °C -0.6 °F /  -18.1 °C 1018.2 in /  34476.3 hPa NNW 35.2 mph /  56.6 km/h 35.2 mph /  56.6 km/h 62 % 0.0 in /  0 mm 171.0 W/m2 CLR
15:34 6.1 °F /  -14.4 °C -0.6 °F /  -18.1 °C 1017.8 in /  34462.7 hPa NNW 18.5 mph /  29.8 km/h 18.5 mph /  29.8 km/h 62 % 0.0 in /  0 mm 146.0 W/m2 CLR
15:39 6.7 °F /  -14.1 °C 0.3 °F /  -17.6 °C 1018.2 in /  34476.3 hPa NW 24.1 mph /  38.8 km/h 24.1 mph /  38.8 km/h 64 % 0.0 in /  0 mm 144.0 W/m2 CLR
15:44 6.1 °F /  -14.4 °C -0.4 °F /  -18 °C 1018.2 in /  34476.3 hPa NW 27.8 mph /  44.7 km/h 27.8 mph /  44.7 km/h 63 % 0.0 in /  0 mm 135.0 W/m2 CLR
15:49 6.1 °F /  -14.4 °C -0.6 °F /  -18.1 °C 1018.2 in /  34476.3 hPa NNW 22.2 mph /  35.7 km/h 22.2 mph /  35.7 km/h 62 % 0.0 in /  0 mm 100.0 W/m2 CLR
15:54 6.1 °F /  -14.4 °C -0.2 °F /  -17.9 °C 1018.2 in /  34476.3 hPa NW 25.7 mph /  41.4 km/h 25.7 mph /  41.4 km/h 64 % 0.0 in /  0 mm 139.0 W/m2 CLR
15:59 6.1 °F /  -14.4 °C -0.6 °F /  -18.1 °C 1018.2 in /  34476.3 hPa NW 31.5 mph /  50.7 km/h 31.5 mph /  50.7 km/h 62 % 0.0 in /  0 mm 70.0 W/m2 CLR
16:04 5.6 °F /  -14.7 °C -1.4 °F /  -18.6 °C 1018.2 in /  34476.3 hPa NNW 24.1 mph /  38.8 km/h 24.1 mph /  38.8 km/h 61 % 0.0 in /  0 mm 74.0 W/m2 FEW
16:09 6.1 °F /  -14.4 °C -0.6 °F /  -18.1 °C 1018.2 in /  34476.3 hPa NNW 29.6 mph /  47.6 km/h 29.6 mph /  47.6 km/h 62 % 0.0 in /  0 mm 359.0 W/m2 FEW
16:14 6.7 °F /  -14.1 °C -0.3 °F /  -17.9 °C 1018.2 in /  34476.3 hPa North 38.6 mph /  62.1 km/h 38.6 mph /  62.1 km/h 61 % 0.0 in /  0 mm 325.0 W/m2 CLR
16:19 6.7 °F /  -14.1 °C -0.6 °F /  -18.1 °C 1018.2 in /  34476.3 hPa NNW 35.4 mph /  57 km/h 35.4 mph /  57 km/h 60 % 0.0 in /  0 mm 237.0 W/m2 CLR
16:24 6.7 °F /  -14.1 °C -0.3 °F /  -17.9 °C 1018.2 in /  34476.3 hPa North 37.0 mph /  59.5 km/h 37.0 mph /  59.5 km/h 61 % 0.0 in /  0 mm 315.0 W/m2 CLR
16:29 6.7 °F /  -14.1 °C -0.6 °F /  -18.1 °C 1018.2 in /  34476.3 hPa NW 35.2 mph /  56.6 km/h 35.2 mph /  56.6 km/h 60 % 0.0 in /  0 mm 294.0 W/m2 CLR
16:34 6.7 °F /  -14.1 °C -0.6 °F /  -18.1 °C 1018.2 in /  34476.3 hPa NNW 27.4 mph /  44.1 km/h 27.4 mph /  44.1 km/h 60 % 0.0 in /  0 mm 272.0 W/m2 CLR
16:39 6.1 °F /  -14.4 °C -1.6 °F /  -18.7 °C 1018.2 in /  34476.3 hPa NNW 29.6 mph /  47.6 km/h 29.6 mph /  47.6 km/h 58 % 0.0 in /  0 mm 244.0 W/m2 CLR
16:44 6.7 °F /  -14.1 °C -1.0 °F /  -18.3 °C 1018.2 in /  34476.3 hPa NW 20.4 mph /  32.8 km/h 20.4 mph /  32.8 km/h 58 % 0.0 in /  0 mm 237.0 W/m2 CLR
16:49 6.1 °F /  -14.4 °C -1.6 °F /  -18.7 °C 1018.2 in /  34476.3 hPa NNW 38.9 mph /  62.6 km/h 38.9 mph /  62.6 km/h 58 % 0.0 in /  0 mm 213.0 W/m2 CLR
16:54 6.1 °F /  -14.4 °C -1.3 °F /  -18.5 °C 1018.2 in /  34476.3 hPa NW 25.9 mph /  41.7 km/h 25.9 mph /  41.7 km/h 59 % 0.0 in /  0 mm 197.0 W/m2 CLR
16:59 6.1 °F /  -14.4 °C -1.1 °F /  -18.4 °C 1018.5 in /  34486.4 hPa NNW 31.5 mph /  50.7 km/h 31.5 mph /  50.7 km/h 60 % 0.0 in /  0 mm 186.0 W/m2 CLR
17:04 6.1 °F /  -14.4 °C -1.1 °F /  -18.4 °C 1018.5 in /  34486.4 hPa NW 29.6 mph /  47.6 km/h 29.6 mph /  47.6 km/h 60 % 0.0 in /  0 mm 149.0 W/m2 CLR
17:09 6.1 °F /  -14.4 °C -0.8 °F /  -18.2 °C 1018.5 in /  34486.4 hPa NW 27.8 mph /  44.7 km/h 29.3 mph /  47.2 km/h 61 % 0.0 in /  0 mm 149.0 W/m2 CLR
17:14 5.6 °F /  -14.7 °C -1.4 °F /  -18.6 °C 1018.5 in /  34486.4 hPa North 24.1 mph /  38.8 km/h 24.1 mph /  38.8 km/h 61 % 0.0 in /  0 mm 130.0 W/m2 CLR
17:19 5.6 °F /  -14.7 °C -1.6 °F /  -18.7 °C 1018.5 in /  34486.4 hPa NNW 31.5 mph /  50.7 km/h 31.5 mph /  50.7 km/h 60 % 0.0 in /  0 mm 116.0 W/m2 CLR
17:25 5.6 °F /  -14.7 °C -1.2 °F /  -18.4 °C 1018.5 in /  34486.4 hPa NNW 27.4 mph /  44.1 km/h 27.4 mph /  44.1 km/h 62 % 0.0 in /  0 mm 100.0 W/m2 CLR
17:30 5.6 °F /  -14.7 °C -1.6 °F /  -18.7 °C 1018.8 in /  34496.6 hPa NW 38.9 mph /  62.6 km/h 38.9 mph /  62.6 km/h 60 % 0.0 in /  0 mm 83.0 W/m2 CLR
17:35 5.0 °F /  -15 °C -2.3 °F /  -19.1 °C 1018.5 in /  34486.4 hPa NNW 38.9 mph /  62.6 km/h 38.9 mph /  62.6 km/h 59 % 0.0 in /  0 mm 67.0 W/m2 FEW
17:40 5.0 °F /  -15 °C -1.9 °F /  -18.8 °C 1018.8 in /  34496.6 hPa NNW 40.2 mph /  64.7 km/h 40.2 mph /  64.7 km/h 61 % 0.0 in /  0 mm 54.0 W/m2 SCT
17:45 5.0 °F /  -15 °C -1.7 °F /  -18.7 °C 1018.5 in /  34486.4 hPa NW 33.3 mph /  53.6 km/h 33.3 mph /  53.6 km/h 62 % 0.0 in /  0 mm 42.0 W/m2 BKN
17:50 5.0 °F /  -15 °C -1.7 °F /  -18.7 °C 1018.5 in /  34486.4 hPa NNW 33.3 mph /  53.6 km/h 33.3 mph /  53.6 km/h 62 % 0.0 in /  0 mm 32.0 W/m2 BKN
17:55 5.0 °F /  -15 °C -1.4 °F /  -18.6 °C 1018.8 in /  34496.6 hPa NNW 33.3 mph /  53.6 km/h 33.3 mph /  53.6 km/h 63 % 0.0 in /  0 mm 25.0 W/m2 BKN
18:00 4.4 °F /  -15.3 °C -2.2 °F /  -19 °C 1018.8 in /  34496.6 hPa NW 38.9 mph /  62.6 km/h 38.9 mph /  62.6 km/h 62 % 0.0 in /  0 mm 19.0 W/m2 BKN
18:05 4.4 °F /  -15.3 °C -2.0 °F /  -18.9 °C 1018.8 in /  34496.6 hPa NW 31.5 mph /  50.7 km/h 31.5 mph /  50.7 km/h 63 % 0.0 in /  0 mm 16.0 W/m2 BKN
18:10 4.4 °F /  -15.3 °C -2.2 °F /  -19 °C 1019.2 in /  34510.1 hPa NW 25.9 mph /  41.7 km/h 25.9 mph /  41.7 km/h 62 % 0.0 in /  0 mm 12.0 W/m2 BKN
18:15 4.4 °F /  -15.3 °C -2.2 °F /  -19 °C 1019.2 in /  34510.1 hPa WNW 24.1 mph /  38.8 km/h 24.1 mph /  38.8 km/h 62 % 0.0 in /  0 mm 11.0 W/m2 BKN
18:20 4.4 °F /  -15.3 °C -2.0 °F /  -18.9 °C 1019.2 in /  34510.1 hPa NNW 30.6 mph /  49.2 km/h 30.6 mph /  49.2 km/h 63 % 0.0 in /  0 mm 7.0 W/m2 BKN
18:25 3.9 °F /  -15.6 °C -2.5 °F /  -19.2 °C 1019.2 in /  34510.1 hPa NW 24.1 mph /  38.8 km/h 24.1 mph /  38.8 km/h 63 % 0.0 in /  0 mm 5.0 W/m2 OVC
18:30 3.9 °F /  -15.6 °C -2.5 °F /  -19.2 °C 1019.2 in /  34510.1 hPa NW 24.1 mph /  38.8 km/h 24.1 mph /  38.8 km/h 63 % 0.0 in /  0 mm 0.0 W/m2 OVC
18:35 3.9 °F /  -15.6 °C -2.3 °F /  -19.1 °C 1019.2 in /  34510.1 hPa NW 22.2 mph /  35.7 km/h 22.2 mph /  35.7 km/h 64 % 0.0 in /  0 mm 0.0 W/m2 CLR
18:40 3.9 °F /  -15.6 °C -2.3 °F /  -19.1 °C 1019.5 in /  34520.3 hPa WNW 25.9 mph /  41.7 km/h 25.9 mph /  41.7 km/h 64 % 0.0 in /  0 mm 0.0 W/m2 CLR
18:45 3.9 °F /  -15.6 °C -2.3 °F /  -19.1 °C 1019.5 in /  34520.3 hPa NW 24.1 mph /  38.8 km/h 24.1 mph /  38.8 km/h 64 % 0.0 in /  0 mm 0.0 W/m2 CLR
18:50 3.9 °F /  -15.6 °C -2.3 °F /  -19.1 °C 1019.5 in /  34520.3 hPa NW 31.5 mph /  50.7 km/h 31.5 mph /  50.7 km/h 64 % 0.0 in /  0 mm 0.0 W/m2 CLR
18:55 3.3 °F /  -15.9 °C -2.8 °F /  -19.3 °C 1019.5 in /  34520.3 hPa NW 22.2 mph /  35.7 km/h 22.2 mph /  35.7 km/h 64 % 0.0 in /  0 mm 0.0 W/m2 CLR
19:00 3.3 °F /  -15.9 °C -2.8 °F /  -19.3 °C 1019.9 in /  34533.8 hPa NNW 18.5 mph /  29.8 km/h 18.5 mph /  29.8 km/h 64 % 0.0 in /  0 mm 0.0 W/m2 CLR
19:05 3.3 °F /  -15.9 °C -3.1 °F /  -19.5 °C 1019.9 in /  34533.8 hPa NW 24.1 mph /  38.8 km/h 24.1 mph /  38.8 km/h 63 % 0.0 in /  0 mm 0.0 W/m2 CLR
19:11 3.3 °F /  -15.9 °C -3.3 °F /  -19.6 °C 1019.9 in /  34533.8 hPa NW 31.5 mph /  50.7 km/h 31.5 mph /  50.7 km/h 62 % 0.0 in /  0 mm 0.0 W/m2 CLR
19:16 3.3 °F /  -15.9 °C -3.3 °F /  -19.6 °C 1020.2 in /  34544 hPa NW 32.2 mph /  51.8 km/h 32.2 mph /  51.8 km/h 62 % 0.0 in /  0 mm 0.0 W/m2 CLR
19:21 3.3 °F /  -15.9 °C -3.1 °F /  -19.5 °C 1020.2 in /  34544 hPa NW 20.4 mph /  32.8 km/h 20.4 mph /  32.8 km/h 63 % 0.0 in /  0 mm 0.0 W/m2 CLR
19:26 3.3 °F /  -15.9 °C -3.1 °F /  -19.5 °C 1020.2 in /  34544 hPa NNW 25.9 mph /  41.7 km/h 25.9 mph /  41.7 km/h 63 % 0.0 in /  0 mm 0.0 W/m2 CLR
19:31 3.3 °F /  -15.9 °C -3.1 °F /  -19.5 °C 1020.2 in /  34544 hPa NNW 25.9 mph /  41.7 km/h 25.9 mph /  41.7 km/h 63 % 0.0 in /  0 mm 0.0 W/m2 CLR
19:36 3.3 °F /  -15.9 °C -3.1 °F /  -19.5 °C 1020.2 in /  34544 hPa NW 24.1 mph /  38.8 km/h 24.1 mph /  38.8 km/h 63 % 0.0 in /  0 mm 0.0 W/m2 CLR
19:41 3.3 °F /  -15.9 °C -3.1 °F /  -19.5 °C 1020.5 in /  34554.1 hPa WNW 18.5 mph /  29.8 km/h 18.5 mph /  29.8 km/h 63 % 0.0 in /  0 mm 0.0 W/m2 CLR
19:46 2.8 °F /  -16.2 °C -3.4 °F /  -19.7 °C 1020.2 in /  34544 hPa NW 27.8 mph /  44.7 km/h 27.8 mph /  44.7 km/h 64 % 0.0 in /  0 mm 0.0 W/m2 CLR
19:51 2.8 °F /  -16.2 °C -3.4 °F /  -19.7 °C 1020.5 in /  34554.1 hPa NW 31.5 mph /  50.7 km/h 31.5 mph /  50.7 km/h 64 % 0.0 in /  0 mm 0.0 W/m2 CLR
19:56 2.8 °F /  -16.2 °C -3.4 °F /  -19.7 °C 1020.5 in /  34554.1 hPa NW 20.9 mph /  33.6 km/h 20.9 mph /  33.6 km/h 64 % 0.0 in /  0 mm 0.0 W/m2 CLR
20:01 2.8 °F /  -16.2 °C -3.2 °F /  -19.6 °C 1020.2 in /  34544 hPa NW 22.5 mph /  36.2 km/h 22.5 mph /  36.2 km/h 65 % 0.0 in /  0 mm 0.0 W/m2 CLR
20:06 2.8 °F /  -16.2 °C -3.4 °F /  -19.7 °C 1020.2 in /  34544 hPa NW 24.1 mph /  38.8 km/h 24.1 mph /  38.8 km/h 64 % 0.0 in /  0 mm 0.0 W/m2 CLR
20:11 2.8 °F /  -16.2 °C -3.2 °F /  -19.6 °C 1020.2 in /  34544 hPa NW 22.2 mph /  35.7 km/h 22.2 mph /  35.7 km/h 65 % 0.0 in /  0 mm 0.0 W/m2 CLR
20:16 2.8 °F /  -16.2 °C -2.9 °F /  -19.4 °C 1020.2 in /  34544 hPa WNW 18.5 mph /  29.8 km/h 18.5 mph /  29.8 km/h 66 % 0.0 in /  0 mm 0.0 W/m2 CLR
20:21 2.8 °F /  -16.2 °C -2.7 °F /  -19.3 °C 1020.2 in /  34544 hPa WNW 22.2 mph /  35.7 km/h 22.2 mph /  35.7 km/h 67 % 0.0 in /  0 mm 0.0 W/m2 CLR
20:26 2.2 °F /  -16.6 °C -3.3 °F /  -19.6 °C 1020.5 in /  34554.1 hPa WNW 18.5 mph /  29.8 km/h 18.5 mph /  29.8 km/h 67 % 0.0 in /  0 mm 0.0 W/m2 CLR
20:31 2.2 °F /  -16.6 °C -3.1 °F /  -19.5 °C 1020.5 in /  34554.1 hPa NW 27.8 mph /  44.7 km/h 27.8 mph /  44.7 km/h 68 % 0.0 in /  0 mm 0.0 W/m2 CLR
20:36 2.2 °F /  -16.6 °C -3.1 °F /  -19.5 °C 1020.5 in /  34554.1 hPa NW 25.9 mph /  41.7 km/h 25.9 mph /  41.7 km/h 68 % 0.0 in /  0 mm 0.0 W/m2 CLR
20:41 2.2 °F /  -16.6 °C -3.1 °F /  -19.5 °C 1020.5 in /  34554.1 hPa WNW 24.1 mph /  38.8 km/h 24.1 mph /  38.8 km/h 68 % 0.0 in /  0 mm 0.0 W/m2 CLR
20:46 2.2 °F /  -16.6 °C -2.9 °F /  -19.4 °C 1020.5 in /  34554.1 hPa NW 20.4 mph /  32.8 km/h 20.4 mph /  32.8 km/h 69 % 0.0 in /  0 mm 0.0 W/m2 CLR
20:51 2.2 °F /  -16.6 °C -2.9 °F /  -19.4 °C 1020.5 in /  34554.1 hPa NW 31.5 mph /  50.7 km/h 31.5 mph /  50.7 km/h 69 % 0.0 in /  0 mm 0.0 W/m2 CLR
20:56 2.2 °F /  -16.6 °C -2.9 °F /  -19.4 °C 1020.5 in /  34554.1 hPa WNW 22.2 mph /  35.7 km/h 22.2 mph /  35.7 km/h 69 % 0.0 in /  0 mm 0.0 W/m2 CLR
21:01 2.2 °F /  -16.6 °C -2.7 °F /  -19.3 °C 1020.5 in /  34554.1 hPa WNW 18.5 mph /  29.8 km/h 18.5 mph /  29.8 km/h 70 % 0.0 in /  0 mm 0.0 W/m2 CLR
21:06 2.2 °F /  -16.6 °C -2.7 °F /  -19.3 °C 1020.5 in /  34554.1 hPa WNW 27.8 mph /  44.7 km/h 27.8 mph /  44.7 km/h 70 % 0.0 in /  0 mm 0.0 W/m2 CLR
21:11 2.2 °F /  -16.6 °C -2.7 °F /  -19.3 °C 1020.5 in /  34554.1 hPa WNW 20.4 mph /  32.8 km/h 20.4 mph /  32.8 km/h 70 % 0.0 in /  0 mm 0.0 W/m2 CLR
21:16 2.2 °F /  -16.6 °C -2.5 °F /  -19.2 °C 1020.5 in /  34554.1 hPa WNW 20.9 mph /  33.6 km/h 20.9 mph /  33.6 km/h 71 % 0.0 in /  0 mm 0.0 W/m2 CLR
21:21 2.2 °F /  -16.6 °C -2.5 °F /  -19.2 °C 1020.5 in /  34554.1 hPa NW 24.1 mph /  38.8 km/h 24.1 mph /  38.8 km/h 71 % 0.0 in /  0 mm 0.0 W/m2 CLR
21:26 2.2 °F /  -16.6 °C -2.5 °F /  -19.2 °C 1020.5 in /  34554.1 hPa NW 18.5 mph /  29.8 km/h 18.5 mph /  29.8 km/h 71 % 0.0 in /  0 mm 0.0 W/m2 CLR
21:31 2.2 °F /  -16.6 °C -2.3 °F /  -19.1 °C 1020.9 in /  34567.7 hPa WNW 18.5 mph /  29.8 km/h 18.5 mph /  29.8 km/h 72 % 0.0 in /  0 mm 0.0 W/m2 CLR
21:36 1.7 °F /  -16.8 °C -2.8 °F /  -19.3 °C 1020.9 in /  34567.7 hPa WNW 19.3 mph /  31.1 km/h 19.3 mph /  31.1 km/h 72 % 0.0 in /  0 mm 0.0 W/m2 CLR
21:41 1.7 °F /  -16.8 °C -2.8 °F /  -19.3 °C 1020.9 in /  34567.7 hPa West 18.5 mph /  29.8 km/h 18.5 mph /  29.8 km/h 72 % 0.0 in /  0 mm 0.0 W/m2 CLR
21:46 1.7 °F /  -16.8 °C -2.8 °F /  -19.3 °C 1020.9 in /  34567.7 hPa NW 19.3 mph /  31.1 km/h 19.3 mph /  31.1 km/h 72 % 0.0 in /  0 mm 0.0 W/m2 CLR
21:51 1.7 °F /  -16.8 °C -2.7 °F /  -19.3 °C 1020.9 in /  34567.7 hPa WNW 18.5 mph /  29.8 km/h 18.5 mph /  29.8 km/h 73 % 0.0 in /  0 mm 0.0 W/m2 CLR
21:56 1.7 °F /  -16.8 °C -2.7 °F /  -19.3 °C 1020.9 in /  34567.7 hPa WNW 18.5 mph /  29.8 km/h 18.5 mph /  29.8 km/h 73 % 0.0 in /  0 mm 0.0 W/m2 CLR
22:01 1.7 °F /  -16.8 °C -2.7 °F /  -19.3 °C 1020.9 in /  34567.7 hPa WNW 25.9 mph /  41.7 km/h 25.9 mph /  41.7 km/h 73 % 0.0 in /  0 mm 0.0 W/m2 CLR
22:06 1.7 °F /  -16.8 °C -2.7 °F /  -19.3 °C 1020.9 in /  34567.7 hPa WNW 20.4 mph /  32.8 km/h 20.4 mph /  32.8 km/h 73 % 0.0 in /  0 mm 0.0 W/m2 CLR
22:11 1.1 °F /  -17.2 °C -3.2 °F /  -19.6 °C 1020.9 in /  34567.7 hPa NW 18.5 mph /  29.8 km/h 18.5 mph /  29.8 km/h 73 % 0.0 in /  0 mm 0.0 W/m2 CLR
22:16 1.7 °F /  -16.8 °C -2.7 °F /  -19.3 °C 1020.9 in /  34567.7 hPa NW 24.1 mph /  38.8 km/h 24.1 mph /  38.8 km/h 73 % 0.0 in /  0 mm 0.0 W/m2 CLR
22:22 1.7 °F /  -16.8 °C -2.5 °F /  -19.2 °C 1020.9 in /  34567.7 hPa NW 22.2 mph /  35.7 km/h 22.2 mph /  35.7 km/h 74 % 0.0 in /  0 mm 0.0 W/m2 CLR
22:27 1.7 °F /  -16.8 °C -2.5 °F /  -19.2 °C 1020.9 in /  34567.7 hPa NW 20.4 mph /  32.8 km/h 20.4 mph /  32.8 km/h 74 % 0.0 in /  0 mm 0.0 W/m2 CLR
22:32 1.7 °F /  -16.8 °C -2.5 °F /  -19.2 °C 1021.2 in /  34577.8 hPa NW 20.4 mph /  32.8 km/h 20.4 mph /  32.8 km/h 74 % 0.0 in /  0 mm 0.0 W/m2 CLR
22:37 1.7 °F /  -16.8 °C -2.5 °F /  -19.2 °C 1021.2 in /  34577.8 hPa WNW 22.2 mph /  35.7 km/h 22.2 mph /  35.7 km/h 74 % 0.0 in /  0 mm 0.0 W/m2 CLR
22:42 1.7 °F /  -16.8 °C -2.5 °F /  -19.2 °C 1021.2 in /  34577.8 hPa WNW 24.1 mph /  38.8 km/h 24.1 mph /  38.8 km/h 74 % 0.0 in /  0 mm 0.0 W/m2 CLR
22:47 1.7 °F /  -16.8 °C -2.5 °F /  -19.2 °C 1020.9 in /  34567.7 hPa NW 20.4 mph /  32.8 km/h 20.4 mph /  32.8 km/h 74 % 0.0 in /  0 mm 0.0 W/m2 CLR
22:52 1.7 °F /  -16.8 °C -2.5 °F /  -19.2 °C 1020.9 in /  34567.7 hPa NW 20.4 mph /  32.8 km/h 20.4 mph /  32.8 km/h 74 % 0.0 in /  0 mm 0.0 W/m2 CLR
22:57 1.7 °F /  -16.8 °C -2.3 °F /  -19.1 °C 1020.9 in /  34567.7 hPa NNW 18.5 mph /  29.8 km/h 18.5 mph /  29.8 km/h 75 % 0.0 in /  0 mm 0.0 W/m2 CLR
23:02 1.7 °F /  -16.8 °C -2.3 °F /  -19.1 °C 1020.9 in /  34567.7 hPa NW 20.4 mph /  32.8 km/h 20.4 mph /  32.8 km/h 75 % 0.0 in /  0 mm 0.0 W/m2 CLR
23:07 1.7 °F /  -16.8 °C -2.3 °F /  -19.1 °C 1021.2 in /  34577.8 hPa WNW 24.1 mph /  38.8 km/h 24.1 mph /  38.8 km/h 75 % 0.0 in /  0 mm 0.0 W/m2 CLR
23:12 1.7 °F /  -16.8 °C -2.3 °F /  -19.1 °C 1020.9 in /  34567.7 hPa NW 22.2 mph /  35.7 km/h 22.2 mph /  35.7 km/h 75 % 0.0 in /  0 mm 0.0 W/m2 CLR
23:17 1.7 °F /  -16.8 °C -2.3 °F /  -19.1 °C 1021.2 in /  34577.8 hPa NW 22.2 mph /  35.7 km/h 22.2 mph /  35.7 km/h 75 % 0.0 in /  0 mm 0.0 W/m2 CLR
23:22 1.7 °F /  -16.8 °C -2.3 °F /  -19.1 °C 1021.2 in /  34577.8 hPa NW 22.2 mph /  35.7 km/h 22.2 mph /  35.7 km/h 75 % 0.0 in /  0 mm 0.0 W/m2 CLR
23:27 1.7 °F /  -16.8 °C -2.5 °F /  -19.2 °C 1021.2 in /  34577.8 hPa WNW 18.5 mph /  29.8 km/h 18.5 mph /  29.8 km/h 74 % 0.0 in /  0 mm 0.0 W/m2 CLR
23:32 1.7 °F /  -16.8 °C -2.3 °F /  -19.1 °C 1021.2 in /  34577.8 hPa NW 20.4 mph /  32.8 km/h 20.4 mph /  32.8 km/h 75 % 0.0 in /  0 mm 0.0 W/m2 CLR
23:37 1.7 °F /  -16.8 °C -2.3 °F /  -19.1 °C 1021.2 in /  34577.8 hPa NW 20.4 mph /  32.8 km/h 20.4 mph /  32.8 km/h 75 % 0.0 in /  0 mm 0.0 W/m2 CLR
23:42 1.7 °F /  -16.8 °C -2.3 °F /  -19.1 °C 1021.2 in /  34577.8 hPa NW 32.2 mph /  51.8 km/h 32.2 mph /  51.8 km/h 75 % 0.0 in /  0 mm 0.0 W/m2 CLR
23:47 1.7 °F /  -16.8 °C -2.3 °F /  -19.1 °C 1021.6 in /  34591.4 hPa NW 18.5 mph /  29.8 km/h 18.5 mph /  29.8 km/h 75 % 0.0 in /  0 mm 0.0 W/m2 CLR
23:52 1.7 °F /  -16.8 °C -2.3 °F /  -19.1 °C 1021.6 in /  34591.4 hPa NW 22.2 mph /  35.7 km/h 22.2 mph /  35.7 km/h 75 % 0.0 in /  0 mm 0.0 W/m2 CLR
23:57 1.7 °F /  -16.8 °C -2.1 °F /  -18.9 °C 1021.6 in /  34591.4 hPa NW 16.7 mph /  26.9 km/h 16.7 mph /  26.9 km/h 76 % 0.0 in /  0 mm 0.0 W/m2 CLR
Lo Temps de Massalio
Compliments of Weather Underground - 1.25 mb